Excelsior Bay — V7BQ4 — position and weather

sailwx.info

Track history (hours):
 
Tides and Currents Weather Stations Pressure Air Temp Water Temp Dewpoint Dewpoint Depression Visibility Wind Speed Wind Dir Waves Ship Positions

Excelsior Bay

Last reported at 2017-Oct-17 21:37 UTC. Time now 2017-Oct-22 06:40 UTC.
Position N 01°14' E 104°00'.

Length 183 m; draft 10.2 m.

Type: Tanker. MMSI: 538005186.

Date/timePositionNaut miles runAvg speedWind from/ knotsBaromVisibWave heightAir tempDewpointWater temp
2017-Oct-17 21:37N 01°14' E 104°00'1 5.2
2017-Oct-17 21:31N 01°14' E 103°60'2138.4
2017-Oct-17 20:58N 01°11' E 103°39'1 2.0
2017-Oct-17 20:25N 01°11' E 103°40'1 1.8
2017-Oct-17 20:00N 01°11' E 103°41'1 1.2
2017-Oct-17 18:53N 01°11' E 103°42'21 3.6
2017-Oct-17 12:57N 01°14' E 104°03'611.7
2017-Oct-17 12:26N 01°14' E 103°57'512.2
2017-Oct-17 12:00N 01°11' E 103°52'611.0
2017-Oct-17 11:30N 01°09' E 103°47'612.0
2017-Oct-17 11:00N 01°05' E 103°43'611.3
2017-Oct-17 10:29N 01°03' E 103°37'611.4
2017-Oct-17 09:59N 01°07' E 103°33'4 8.5
2017-Oct-17 09:30N 01°10' E 103°35'510.8
2017-Oct-17 09:00N 01°11' E 103°40'2 4.5
2017-Oct-17 08:30N 01°11' E 103°42'0 0.3
2017-Oct-17 07:58N 01°11' E 103°42'0 0.0
2017-Oct-17 07:28N 01°11' E 103°42'0 0.0
2017-Oct-17 06:58N 01°11' E 103°42'0 0.0
2017-Oct-17 06:28N 01°11' E 103°42'0 0.1
2017-Oct-17 05:43N 01°11' E 103°42'0 0.0
2017-Oct-17 05:28N 01°11' E 103°42'0 0.0
2017-Oct-17 04:58N 01°11' E 103°42'0 0.0
2017-Oct-17 04:28N 01°11' E 103°42'0 0.0
2017-Oct-17 03:58N 01°11' E 103°42'0 0.1
2017-Oct-17 03:16N 01°11' E 103°42'0 0.0
2017-Oct-17 02:58N 01°11' E 103°42'0 0.0
2017-Oct-17 02:28N 01°11' E 103°42'1 1.9
2017-Oct-17 02:00N 01°11' E 103°41'4 8.4
2017-Oct-17 01:30N 01°12' E 103°37'2 4.0
2017-Oct-17 01:00N 01°12' E 103°35'3 5.5
2017-Oct-17 00:30N 01°10' E 103°33'4 8.5
2017-Oct-17 00:00N 01°10' E 103°29'713.3
2017-Oct-16 23:30N 01°13' E 103°23'813.8
2017-Oct-16 22:57N 01°18' E 103°17'  
Track history (hours):
 
Tides and Currents Weather Stations Pressure Air Temp Water Temp Dewpoint Dewpoint Depression Visibility Wind Speed Wind Dir Waves Ship Positions

Excelsior Bay

Last reported at 2017-Oct-17 21:37 UTC. Time now 2017-Oct-22 06:40 UTC.
Position N 01°14' E 104°00'.

Length 183 m; draft 10.2 m.

Type: Tanker. MMSI: 538005186.

Date/timePositionNaut miles runAvg speedWind from/ knotsBaromVisibWave heightAir tempDewpointWater temp
2017-Oct-17 21:37N 01°14' E 104°00'1 5.2
2017-Oct-17 21:31N 01°14' E 103°60'2138.4
2017-Oct-17 20:58N 01°11' E 103°39'1 2.0
2017-Oct-17 20:25N 01°11' E 103°40'1 1.8
2017-Oct-17 20:00N 01°11' E 103°41'1 1.2
2017-Oct-17 18:53N 01°11' E 103°42'21 3.6
2017-Oct-17 12:57N 01°14' E 104°03'611.7
2017-Oct-17 12:26N 01°14' E 103°57'512.2
2017-Oct-17 12:00N 01°11' E 103°52'611.0
2017-Oct-17 11:30N 01°09' E 103°47'612.0
2017-Oct-17 11:00N 01°05' E 103°43'611.3
2017-Oct-17 10:29N 01°03' E 103°37'611.4
2017-Oct-17 09:59N 01°07' E 103°33'4 8.5
2017-Oct-17 09:30N 01°10' E 103°35'510.8
2017-Oct-17 09:00N 01°11' E 103°40'2 4.5
2017-Oct-17 08:30N 01°11' E 103°42'0 0.3
2017-Oct-17 07:58N 01°11' E 103°42'0 0.0
2017-Oct-17 07:28N 01°11' E 103°42'0 0.0
2017-Oct-17 06:58N 01°11' E 103°42'0 0.0
2017-Oct-17 06:28N 01°11' E 103°42'0 0.1
2017-Oct-17 05:43N 01°11' E 103°42'0 0.0
2017-Oct-17 05:28N 01°11' E 103°42'0 0.0
2017-Oct-17 04:58N 01°11' E 103°42'0 0.0
2017-Oct-17 04:28N 01°11' E 103°42'0 0.0
2017-Oct-17 03:58N 01°11' E 103°42'0 0.1
2017-Oct-17 03:16N 01°11' E 103°42'0 0.0
2017-Oct-17 02:58N 01°11' E 103°42'0 0.0
2017-Oct-17 02:28N 01°11' E 103°42'1 1.9
2017-Oct-17 02:00N 01°11' E 103°41'4 8.4
2017-Oct-17 01:30N 01°12' E 103°37'2 4.0
2017-Oct-17 01:00N 01°12' E 103°35'3 5.5
2017-Oct-17 00:30N 01°10' E 103°33'4 8.5
2017-Oct-17 00:00N 01°10' E 103°29'713.3
2017-Oct-16 23:30N 01°13' E 103°23'813.8
2017-Oct-16 22:57N 01°18' E 103°17'  

Dump ship's entire track history